Time;durP1;ratioP1;P1;durP2;ratioP2;P2;SDS_P1;SDS_P2;PMS_P1;PMS_P2;Temp;Humidity;BMP_temperature;BMP_pressure;BME280_temperature;BME280_humidity;BME280_pressure;Samples;Min_cycle;Max_cycle;Signal;HPM_P1;HPM_P2
2021/01/20 00:02:02;;;;;;;14.18;1.70;;;;;;;;;;5028873;28;20112;-87
2021/01/20 00:04:35;;;;;;;13.35;2.08;;;;;;;;;;5045886;22;20135;-88
2021/01/20 00:07:03;;;;;;;14.33;1.87;;;;;;;;;;5075085;22;20049;-90
2021/01/20 00:09:30;;;;;;;10.38;1.85;;;;;;;;;;5105495;22;20055;-86
2021/01/20 00:12:00;;;;;;;8.75;1.63;;;;;;;;;;5102705;22;20027;-88
2021/01/20 00:14:33;;;;;;;11.60;2.08;;;;;;;;;;5030872;28;20029;-87
2021/01/20 00:17:06;;;;;;;11.60;2.17;;;;;;;;;;5026306;28;20025;-86
2021/01/20 00:19:36;;;;;;;12.18;1.33;;;;;;;;;;5014869;28;20024;-87
2021/01/20 00:22:04;;;;;;;11.00;1.30;;;;;;;;;;5115516;22;20040;-86
2021/01/20 00:24:31;;;;;;;11.13;1.77;;;;;;;;;;5066528;28;20040;-87
2021/01/20 00:26:58;;;;;;;12.25;1.70;;;;;;;;;;5070043;28;20025;-85
2021/01/20 00:29:26;;;;;;;20.63;2.75;;;;;;;;;;5050988;28;20063;-82
2021/01/20 00:31:53;;;;;;;8.07;1.77;;;;;;;;;;5046643;28;20060;-83
2021/01/20 00:34:20;;;;;;;13.55;2.00;;;;;;;;;;5053877;28;20028;-85
2021/01/20 00:36:47;;;;;;;9.25;1.45;;;;;;;;;;5069811;28;20044;-82
2021/01/20 00:39:16;;;;;;;9.10;1.55;;;;;;;;;;5077897;22;20059;-83
2021/01/20 00:41:43;;;;;;;9.60;1.92;;;;;;;;;;5092598;28;20054;-84
2021/01/20 00:44:11;;;;;;;14.73;2.13;;;;;;;;;;5092357;28;20059;-83
2021/01/20 00:46:38;;;;;;;14.02;2.63;;;;;;;;;;5093767;28;20016;-85
2021/01/20 00:49:05;;;;;;;12.90;1.77;;;;;;;;;;5088533;28;20119;-83
2021/01/20 00:51:32;;;;;;;11.18;1.38;;;;;;;;;;5093644;28;20103;-85
2021/01/20 00:53:59;;;;;;;10.52;1.38;;;;;;;;;;5092598;28;20028;-83
2021/01/20 00:56:26;;;;;;;7.97;1.15;;;;;;;;;;5093958;28;20055;-83
2021/01/20 00:58:53;;;;;;;11.57;1.55;;;;;;;;;;5090779;28;20479;-84
2021/01/20 01:01:21;;;;;;;11.60;2.17;;;;;;;;;;5085891;28;20488;-83
2021/01/20 01:03:48;;;;;;;15.02;2.65;;;;;;;;;;5092352;28;20068;-84
2021/01/20 01:06:15;;;;;;;11.27;1.45;;;;;;;;;;5092640;28;20020;-83
2021/01/20 01:08:42;;;;;;;14.80;3.03;;;;;;;;;;5084363;28;20039;-87
2021/01/20 01:11:09;;;;;;;10.18;1.92;;;;;;;;;;5115257;22;20068;-83
2021/01/20 01:13:36;;;;;;;14.73;1.73;;;;;;;;;;5088620;28;20551;-82
2021/01/20 01:16:03;;;;;;;10.55;2.00;;;;;;;;;;5093105;28;20099;-86
2021/01/20 01:18:31;;;;;;;13.38;1.98;;;;;;;;;;5097822;28;20464;-82
2021/01/20 01:20:58;;;;;;;7.72;1.50;;;;;;;;;;5107039;28;20020;-83
2021/01/20 01:23:25;;;;;;;9.27;1.75;;;;;;;;;;5092438;28;20035;-84
2021/01/20 01:25:55;;;;;;;10.93;1.35;;;;;;;;;;5112712;28;20031;-82
2021/01/20 01:28:22;;;;;;;13.77;1.55;;;;;;;;;;5110593;28;20039;-82
2021/01/20 01:30:49;;;;;;;9.52;1.90;;;;;;;;;;5112984;28;20095;-80
2021/01/20 01:33:16;;;;;;;11.05;2.15;;;;;;;;;;5103325;28;20019;-76
2021/01/20 01:35:44;;;;;;;13.63;2.67;;;;;;;;;;5110810;28;20032;-80
2021/01/20 01:38:12;;;;;;;10.90;1.38;;;;;;;;;;5107054;28;20027;-79
2021/01/20 01:40:39;;;;;;;12.98;3.03;;;;;;;;;;5112164;28;20032;-87
2021/01/20 01:43:06;;;;;;;11.88;2.00;;;;;;;;;;5091734;28;20035;-84
2021/01/20 01:45:33;;;;;;;9.23;2.13;;;;;;;;;;5107744;28;20020;-84
2021/01/20 01:48:00;;;;;;;7.72;1.42;;;;;;;;;;5109631;27;20032;-84
2021/01/20 01:50:27;;;;;;;6.70;1.75;;;;;;;;;;5112248;28;20028;-83
2021/01/20 01:52:54;;;;;;;13.77;1.95;;;;;;;;;;5110395;28;20395;-88
2021/01/20 01:55:21;;;;;;;15.00;1.95;;;;;;;;;;5112001;28;20092;-87
2021/01/20 01:57:48;;;;;;;6.97;1.98;;;;;;;;;;5108178;28;20020;-86
2021/01/20 02:00:16;;;;;;;10.35;1.38;;;;;;;;;;5118887;28;20022;-86
2021/01/20 02:02:43;;;;;;;9.70;1.75;;;;;;;;;;5107699;28;20088;-85
2021/01/20 02:05:10;;;;;;;16.83;2.08;;;;;;;;;;5112298;28;20031;-85
2021/01/20 02:07:37;;;;;;;12.27;2.25;;;;;;;;;;5090277;28;20024;-85
2021/01/20 02:10:05;;;;;;;8.80;0.95;;;;;;;;;;5092481;28;20039;-87
2021/01/20 02:12:32;;;;;;;11.73;2.55;;;;;;;;;;5104329;22;20059;-86
2021/01/20 02:17:35;;;;;;;12.02;2.75;;;;;;;;;;5069147;22;20037;-82
2021/01/20 02:20:12;;;;;;;9.48;2.17;;;;;;;;;;5082111;22;20044;-82
2021/01/20 02:22:50;;;;;;;13.00;2.90;;;;;;;;;;5101208;28;20032;-80
2021/01/20 02:25:35;;;;;;;11.13;1.60;;;;;;;;;;5085637;28;20123;-85
2021/01/20 02:28:02;;;;;;;12.57;1.77;;;;;;;;;;5108995;28;20024;-86
2021/01/20 02:30:29;;;;;;;7.80;2.05;;;;;;;;;;5088181;22;20052;-80
2021/01/20 02:32:58;;;;;;;17.75;1.90;;;;;;;;;;5068914;28;20031;-79
2021/01/20 02:35:25;;;;;;;12.10;1.45;;;;;;;;;;5071617;28;20024;-84
2021/01/20 02:37:53;;;;;;;7.78;1.40;;;;;;;;;;5062401;28;20021;-83
2021/01/20 02:40:20;;;;;;;11.05;2.17;;;;;;;;;;5054030;28;20037;-82
2021/01/20 02:42:48;;;;;;;7.72;1.27;;;;;;;;;;5069156;28;20021;-87
2021/01/20 02:45:16;;;;;;;9.20;1.15;;;;;;;;;;5080215;22;20035;-84
2021/01/20 02:47:44;;;;;;;7.13;1.10;;;;;;;;;;5070427;28;20029;-81
2021/01/20 02:50:11;;;;;;;11.65;2.20;;;;;;;;;;5086353;28;20020;-80
2021/01/20 02:52:41;;;;;;;9.55;1.48;;;;;;;;;;5089981;28;20048;-80
2021/01/20 02:55:09;;;;;;;7.55;1.35;;;;;;;;;;5093118;28;20068;-83
2021/01/20 02:57:38;;;;;;;7.15;1.90;;;;;;;;;;5092794;28;20024;-82
2021/01/20 03:00:06;;;;;;;7.90;1.48;;;;;;;;;;5092862;28;20028;-79
2021/01/20 03:02:35;;;;;;;7.88;1.80;;;;;;;;;;5076896;28;20119;-82
2021/01/20 03:05:02;;;;;;;8.45;1.73;;;;;;;;;;5090525;28;20032;-77
2021/01/20 03:07:31;;;;;;;8.88;1.30;;;;;;;;;;5089339;28;20028;-74
2021/01/20 03:09:58;;;;;;;7.60;1.35;;;;;;;;;;5089427;28;20059;-74
2021/01/20 03:12:29;;;;;;;8.52;1.48;;;;;;;;;;5090388;28;20032;-75
2021/01/20 03:15:01;;;;;;;8.48;1.42;;;;;;;;;;5093880;28;20035;-75
2021/01/20 03:17:31;;;;;;;11.15;1.85;;;;;;;;;;5108882;22;20032;-75
2021/01/20 03:19:58;;;;;;;10.10;1.58;;;;;;;;;;5061281;28;20037;-77
2021/01/20 03:22:25;;;;;;;8.88;1.20;;;;;;;;;;5049131;28;20056;-77
2021/01/20 03:24:52;;;;;;;6.25;1.00;;;;;;;;;;5043937;28;20477;-77
2021/01/20 03:27:19;;;;;;;5.53;1.05;;;;;;;;;;5039538;28;20370;-77
2021/01/20 03:29:46;;;;;;;8.18;1.42;;;;;;;;;;5039552;28;20021;-76
2021/01/20 03:32:14;;;;;;;12.57;2.42;;;;;;;;;;5053658;28;20024;-76
2021/01/20 03:34:41;;;;;;;8.60;1.75;;;;;;;;;;5052113;28;20432;-76
2021/01/20 03:37:08;;;;;;;10.82;1.58;;;;;;;;;;5052442;28;20029;-77
2021/01/20 03:39:35;;;;;;;6.68;1.52;;;;;;;;;;5051502;28;20136;-76
2021/01/20 03:42:02;;;;;;;6.00;1.63;;;;;;;;;;5055149;28;20021;-77
2021/01/20 03:44:29;;;;;;;7.53;1.38;;;;;;;;;;5045481;28;20041;-77
2021/01/20 03:46:56;;;;;;;9.88;1.17;;;;;;;;;;5055180;28;20104;-77
2021/01/20 03:49:23;;;;;;;6.15;1.33;;;;;;;;;;5036291;28;20109;-77
2021/01/20 03:51:50;;;;;;;8.20;1.92;;;;;;;;;;5041928;28;20366;-77
2021/01/20 03:54:18;;;;;;;7.78;1.25;;;;;;;;;;5051740;28;20033;-77
2021/01/20 03:56:45;;;;;;;12.07;2.00;;;;;;;;;;5051565;28;20497;-77
2021/01/20 03:59:12;;;;;;;9.82;1.60;;;;;;;;;;5044412;28;20033;-77
2021/01/20 04:01:39;;;;;;;8.23;1.58;;;;;;;;;;5048109;28;20477;-77
2021/01/20 04:04:06;;;;;;;12.82;1.65;;;;;;;;;;5058062;28;20029;-77
2021/01/20 04:06:33;;;;;;;9.20;1.30;;;;;;;;;;5050164;28;20027;-77
2021/01/20 04:09:00;;;;;;;8.70;1.13;;;;;;;;;;5053912;28;20075;-77
2021/01/20 04:11:28;;;;;;;9.55;1.45;;;;;;;;;;5057750;28;20025;-77
2021/01/20 04:13:55;;;;;;;10.65;1.88;;;;;;;;;;5038844;28;20490;-77
2021/01/20 04:16:22;;;;;;;11.93;1.52;;;;;;;;;;5051588;28;20037;-77
2021/01/20 04:18:49;;;;;;;8.80;1.70;;;;;;;;;;5060306;22;21165;-76
2021/01/20 04:21:16;;;;;;;12.68;2.58;;;;;;;;;;5077774;22;20052;-78
2021/01/20 04:23:43;;;;;;;8.45;1.33;;;;;;;;;;5094407;22;20585;-78
2021/01/20 04:26:10;;;;;;;8.88;1.52;;;;;;;;;;5072180;28;20024;-81
2021/01/20 04:28:38;;;;;;;10.18;1.50;;;;;;;;;;5091250;22;20048;-83
2021/01/20 04:31:06;;;;;;;9.32;2.35;;;;;;;;;;5089944;28;20114;-78
2021/01/20 04:33:33;;;;;;;11.43;2.58;;;;;;;;;;5106117;28;22281;-77
2021/01/20 04:36:00;;;;;;;13.40;1.92;;;;;;;;;;5113031;22;20064;-78
2021/01/20 04:38:27;;;;;;;12.60;2.28;;;;;;;;;;5070536;28;20035;-77
2021/01/20 04:40:57;;;;;;;7.70;1.05;;;;;;;;;;5053186;28;20140;-83
2021/01/20 04:43:24;;;;;;;8.00;0.98;;;;;;;;;;5051376;28;20067;-81
2021/01/20 04:45:52;;;;;;;6.88;1.35;;;;;;;;;;5053433;28;20017;-90
2021/01/20 04:48:20;;;;;;;10.50;1.65;;;;;;;;;;5051757;28;20029;-85
2021/01/20 04:50:50;;;;;;;12.02;1.60;;;;;;;;;;5052884;28;20535;-79
2021/01/20 04:53:19;;;;;;;8.23;2.10;;;;;;;;;;5071162;22;20123;-79
2021/01/20 04:55:47;;;;;;;8.35;1.98;;;;;;;;;;5072865;28;20103;-76
2021/01/20 04:58:14;;;;;;;9.57;1.50;;;;;;;;;;5069395;28;20027;-76
2021/01/20 05:00:42;;;;;;;5.88;1.40;;;;;;;;;;5071786;28;20507;-75
2021/01/20 05:03:10;;;;;;;6.45;1.42;;;;;;;;;;5070606;28;20088;-75
2021/01/20 05:05:37;;;;;;;8.55;1.65;;;;;;;;;;5072304;28;20473;-76
2021/01/20 05:08:05;;;;;;;11.95;2.17;;;;;;;;;;5065464;28;20258;-76
2021/01/20 05:10:32;;;;;;;9.57;1.70;;;;;;;;;;5071092;28;20024;-76
2021/01/20 05:12:59;;;;;;;10.68;1.50;;;;;;;;;;5070393;28;20016;-76
2021/01/20 05:15:35;;;;;;;9.73;1.30;;;;;;;;;;5072791;28;20012;-76
2021/01/20 05:18:06;;;;;;;10.65;1.30;;;;;;;;;;5066651;28;20035;-76
2021/01/20 05:20:34;;;;;;;8.68;1.80;;;;;;;;;;5065222;28;20051;-77
2021/01/20 05:23:02;;;;;;;8.90;1.77;;;;;;;;;;5057645;28;20040;-76
2021/01/20 05:25:30;;;;;;;12.93;1.65;;;;;;;;;;5081225;22;20056;-76
2021/01/20 05:27:58;;;;;;;7.22;1.27;;;;;;;;;;5049914;28;20462;-76
2021/01/20 05:30:25;;;;;;;12.40;2.00;;;;;;;;;;5050453;28;20481;-76
2021/01/20 05:32:55;;;;;;;12.05;1.35;;;;;;;;;;5045961;28;20104;-76
2021/01/20 05:35:23;;;;;;;10.70;1.60;;;;;;;;;;5052601;28;20063;-76
2021/01/20 05:37:50;;;;;;;8.68;1.50;;;;;;;;;;5046875;28;20037;-76
2021/01/20 05:40:18;;;;;;;7.10;0.90;;;;;;;;;;5048657;28;20082;-79
2021/01/20 05:42:50;;;;;;;8.00;1.50;;;;;;;;;;5046986;28;20457;-76
2021/01/20 05:45:18;;;;;;;7.90;0.85;;;;;;;;;;5049667;28;20103;-76
2021/01/20 05:48:04;;;;;;;8.15;1.70;;;;;;;;;;5048590;28;20477;-76
2021/01/20 05:50:31;;;;;;;6.90;0.90;;;;;;;;;;5046124;28;20053;-76
2021/01/20 05:53:04;;;;;;;8.88;1.73;;;;;;;;;;5044710;28;20041;-75
2021/01/20 05:55:31;;;;;;;11.15;1.45;;;;;;;;;;5048601;28;20033;-76
2021/01/20 05:57:58;;;;;;;10.43;2.13;;;;;;;;;;5040744;28;20029;-76
2021/01/20 06:00:26;;;;;;;11.02;1.60;;;;;;;;;;5051115;28;20066;-76
2021/01/20 06:02:57;;;;;;;9.63;1.55;;;;;;;;;;5049526;28;20037;-75
2021/01/20 06:05:24;;;;;;;8.23;1.48;;;;;;;;;;5050895;28;20047;-76
2021/01/20 06:07:52;;;;;;;11.82;1.70;;;;;;;;;;5048831;28;20029;-76
2021/01/20 06:10:24;;;;;;;9.52;1.30;;;;;;;;;;5046022;28;20082;-76
2021/01/20 06:12:53;;;;;;;11.10;1.40;;;;;;;;;;5048739;28;20615;-76
2021/01/20 06:15:20;;;;;;;10.07;1.85;;;;;;;;;;5051002;28;20036;-76
2021/01/20 06:17:49;;;;;;;7.43;1.20;;;;;;;;;;5046788;28;20120;-77
2021/01/20 06:20:23;;;;;;;7.97;1.15;;;;;;;;;;5049245;28;20029;-76
2021/01/20 06:22:52;;;;;;;6.88;1.63;;;;;;;;;;5049387;28;20162;-75
2021/01/20 06:25:30;;;;;;;9.02;1.65;;;;;;;;;;5050877;28;20048;-77
2021/01/20 06:27:57;;;;;;;9.45;1.60;;;;;;;;;;5122630;22;20173;-79
2021/01/20 06:30:30;;;;;;;8.02;1.20;;;;;;;;;;5096903;22;20047;-93
2021/01/20 06:32:57;;;;;;;7.80;1.65;;;;;;;;;;5086066;28;20555;-74
2021/01/20 06:35:42;;;;;;;8.13;1.42;;;;;;;;;;5088804;22;20040;-75
2021/01/20 06:38:28;;;;;;;10.52;1.85;;;;;;;;;;5069656;28;20037;-75
2021/01/20 06:40:56;;;;;;;8.38;1.70;;;;;;;;;;5044656;28;20397;-75
2021/01/20 06:43:36;;;;;;;10.05;1.92;;;;;;;;;;5061498;22;20116;-75
2021/01/20 06:46:29;;;;;;;6.07;1.08;;;;;;;;;;5091741;28;20095;-75
2021/01/20 06:48:56;;;;;;;7.50;1.48;;;;;;;;;;5097151;28;20563;-75
2021/01/20 06:51:24;;;;;;;8.13;1.48;;;;;;;;;;5105887;28;20035;-75
2021/01/20 06:54:07;;;;;;;8.35;1.67;;;;;;;;;;5090221;28;20040;-75
2021/01/20 06:56:34;;;;;;;9.25;1.10;;;;;;;;;;5089928;28;20067;-75
2021/01/20 06:59:17;;;;;;;7.55;1.17;;;;;;;;;;5085985;28;20114;-74
2021/01/20 07:02:04;;;;;;;9.55;2.08;;;;;;;;;;5064031;22;20099;-75
2021/01/20 07:04:38;;;;;;;11.50;1.55;;;;;;;;;;5026446;28;20422;-75
2021/01/20 07:07:05;;;;;;;12.10;2.00;;;;;;;;;;5049522;28;20159;-75
2021/01/20 07:09:50;;;;;;;5.05;1.38;;;;;;;;;;5048630;28;20269;-75
2021/01/20 07:12:24;;;;;;;10.85;1.80;;;;;;;;;;5033880;28;20110;-76
2021/01/20 07:14:52;;;;;;;8.73;1.80;;;;;;;;;;5026859;28;20021;-75
2021/01/20 07:17:19;;;;;;;10.70;1.15;;;;;;;;;;5024597;28;20040;-75
2021/01/20 07:19:47;;;;;;;7.80;1.80;;;;;;;;;;5027019;28;20041;-75
2021/01/20 07:22:14;;;;;;;12.30;1.92;;;;;;;;;;5030207;28;20060;-75
2021/01/20 07:24:41;;;;;;;7.72;1.83;;;;;;;;;;5012627;28;20141;-75
2021/01/20 07:27:11;;;;;;;7.47;1.67;;;;;;;;;;5038180;28;20029;-75
2021/01/20 07:29:39;;;;;;;8.32;1.65;;;;;;;;;;5030703;28;20029;-76
2021/01/20 07:32:06;;;;;;;12.15;1.58;;;;;;;;;;5031276;28;20100;-75
2021/01/20 07:34:37;;;;;;;9.45;1.25;;;;;;;;;;5062068;22;20061;-76
2021/01/20 07:37:08;;;;;;;8.50;2.40;;;;;;;;;;5068276;28;20034;-76
2021/01/20 07:39:36;;;;;;;8.35;1.63;;;;;;;;;;5062014;28;20114;-76
2021/01/20 07:42:05;;;;;;;11.23;1.55;;;;;;;;;;5074995;28;20021;-76
2021/01/20 07:44:32;;;;;;;12.63;1.83;;;;;;;;;;5072041;28;20036;-76
2021/01/20 07:47:00;;;;;;;10.00;1.67;;;;;;;;;;5074936;28;20377;-76
2021/01/20 07:49:27;;;;;;;11.68;1.60;;;;;;;;;;5054119;28;20194;-76
2021/01/20 07:52:03;;;;;;;9.70;1.52;;;;;;;;;;5074425;28;20024;-75
2021/01/20 07:54:37;;;;;;;13.73;1.67;;;;;;;;;;5072697;28;20107;-75
2021/01/20 07:57:04;;;;;;;11.02;1.88;;;;;;;;;;5072070;28;20025;-75
2021/01/20 07:59:34;;;;;;;8.10;1.75;;;;;;;;;;5070690;28;20031;-75
2021/01/20 08:02:11;;;;;;;10.57;2.00;;;;;;;;;;5074248;28;20021;-75
2021/01/20 08:04:38;;;;;;;7.90;1.30;;;;;;;;;;5073356;28;20048;-75
2021/01/20 08:07:06;;;;;;;7.15;1.30;;;;;;;;;;5054487;28;20020;-75
2021/01/20 08:09:47;;;;;;;10.60;1.67;;;;;;;;;;5071398;28;20520;-75
2021/01/20 08:12:16;;;;;;;11.93;2.42;;;;;;;;;;5072868;28;20485;-76
2021/01/20 08:14:43;;;;;;;8.45;1.67;;;;;;;;;;5073933;28;20024;-75
2021/01/20 08:17:12;;;;;;;8.70;1.45;;;;;;;;;;5073355;28;20499;-76
2021/01/20 08:19:39;;;;;;;7.53;1.15;;;;;;;;;;5071190;28;20041;-75
2021/01/20 08:22:12;;;;;;;8.40;1.70;;;;;;;;;;5074038;28;20021;-75
2021/01/20 08:24:44;;;;;;;11.27;1.75;;;;;;;;;;5073019;28;20138;-75
2021/01/20 08:27:12;;;;;;;11.27;1.55;;;;;;;;;;5055192;28;20491;-75
2021/01/20 08:29:48;;;;;;;9.50;1.67;;;;;;;;;;5073834;28;20029;-75
2021/01/20 08:32:16;;;;;;;8.45;2.03;;;;;;;;;;5071842;28;20060;-76
2021/01/20 08:34:43;;;;;;;10.60;2.15;;;;;;;;;;5073398;22;20570;-76
2021/01/20 08:37:12;;;;;;;10.00;1.35;;;;;;;;;;5080915;22;20047;-75
2021/01/20 08:39:40;;;;;;;7.07;1.55;;;;;;;;;;5090479;22;20106;-76
2021/01/20 08:42:21;;;;;;;9.88;1.40;;;;;;;;;;5088497;22;20388;-76
2021/01/20 08:45:05;;;;;;;8.57;1.77;;;;;;;;;;5035842;28;20048;-76
2021/01/20 08:47:53;;;;;;;11.75;2.17;;;;;;;;;;5065757;28;20381;-76
2021/01/20 08:50:29;;;;;;;8.85;1.42;;;;;;;;;;5053297;28;20036;-76
2021/01/20 08:52:57;;;;;;;9.52;1.65;;;;;;;;;;5110689;22;20512;-75
2021/01/20 08:55:26;;;;;;;10.82;2.00;;;;;;;;;;5114174;28;20024;-76
2021/01/20 08:58:11;;;;;;;12.95;1.90;;;;;;;;;;5090121;28;20103;-77
2021/01/20 09:00:42;;;;;;;11.50;2.17;;;;;;;;;;5093349;28;20024;-74
2021/01/20 09:03:19;;;;;;;7.25;1.17;;;;;;;;;;5103777;28;20041;-74
2021/01/20 09:05:47;;;;;;;11.30;2.10;;;;;;;;;;5090067;28;20472;-75
2021/01/20 09:08:15;;;;;;;11.05;2.50;;;;;;;;;;5113130;28;20020;-74
2021/01/20 09:10:43;;;;;;;13.32;2.05;;;;;;;;;;5112387;28;20091;-74
2021/01/20 09:13:10;;;;;;;9.68;1.75;;;;;;;;;;5112217;28;20080;-74
2021/01/20 09:15:37;;;;;;;12.20;2.65;;;;;;;;;;5112718;28;20024;-74
2021/01/20 09:18:08;;;;;;;7.28;1.55;;;;;;;;;;5111778;28;20028;-74
2021/01/20 09:20:36;;;;;;;10.55;2.30;;;;;;;;;;5112707;28;20030;-74
2021/01/20 09:23:06;;;;;;;11.95;2.58;;;;;;;;;;5113381;28;20401;-74
2021/01/20 09:25:34;;;;;;;13.52;2.30;;;;;;;;;;5112207;28;20479;-74
2021/01/20 09:28:01;;;;;;;7.00;1.85;;;;;;;;;;5093419;28;20031;-74
2021/01/20 09:30:28;;;;;;;13.95;2.00;;;;;;;;;;5112559;28;20027;-74
2021/01/20 09:32:55;;;;;;;11.90;2.15;;;;;;;;;;5112959;28;20028;-74
2021/01/20 09:35:23;;;;;;;10.82;1.88;;;;;;;;;;5112195;28;20364;-75
2021/01/20 09:37:51;;;;;;;9.02;1.60;;;;;;;;;;5112805;28;20047;-75
2021/01/20 09:40:19;;;;;;;11.90;1.52;;;;;;;;;;5081922;22;20145;-74
2021/01/20 09:42:50;;;;;;;9.82;1.95;;;;;;;;;;5071919;28;20028;-73
2021/01/20 09:45:22;;;;;;;10.73;2.33;;;;;;;;;;5064555;28;20047;-73
2021/01/20 09:47:49;;;;;;;11.02;2.20;;;;;;;;;;5072119;28;20024;-73
2021/01/20 09:50:17;;;;;;;9.30;1.30;;;;;;;;;;5071955;28;20039;-73
2021/01/20 09:52:47;;;;;;;14.73;1.70;;;;;;;;;;5071299;28;20060;-73
2021/01/20 09:55:14;;;;;;;8.68;1.63;;;;;;;;;;5069503;28;20492;-73
2021/01/20 09:57:42;;;;;;;11.35;1.95;;;;;;;;;;5069016;28;20245;-74
2021/01/20 10:00:11;;;;;;;13.95;2.00;;;;;;;;;;5072013;28;20459;-74
2021/01/20 10:02:39;;;;;;;11.55;2.08;;;;;;;;;;5070031;28;20017;-74
2021/01/20 10:05:07;;;;;;;6.97;2.17;;;;;;;;;;5070336;28;20562;-74
2021/01/20 10:07:34;;;;;;;12.07;2.20;;;;;;;;;;5071683;28;20021;-74
2021/01/20 10:10:01;;;;;;;14.95;2.22;;;;;;;;;;5070851;28;20082;-74
2021/01/20 10:12:28;;;;;;;11.90;2.22;;;;;;;;;;5071343;28;20107;-74
2021/01/20 10:14:55;;;;;;;17.75;2.33;;;;;;;;;;5072184;28;20017;-74
2021/01/20 10:17:22;;;;;;;9.13;1.98;;;;;;;;;;5071408;28;20105;-74
2021/01/20 10:19:49;;;;;;;7.75;1.92;;;;;;;;;;5071197;28;20077;-74
2021/01/20 10:22:17;;;;;;;8.48;1.33;;;;;;;;;;5074298;28;20384;-74
2021/01/20 10:24:44;;;;;;;9.23;1.85;;;;;;;;;;5071865;28;20028;-74
2021/01/20 10:27:11;;;;;;;7.97;1.95;;;;;;;;;;5071027;28;20043;-74
2021/01/20 10:29:38;;;;;;;12.88;2.58;;;;;;;;;;5071413;28;20044;-74
2021/01/20 10:32:05;;;;;;;9.32;2.05;;;;;;;;;;5070685;28;20027;-74
2021/01/20 10:34:32;;;;;;;11.68;2.75;;;;;;;;;;5070374;28;20059;-74
2021/01/20 10:36:59;;;;;;;7.38;1.58;;;;;;;;;;5071732;28;20089;-74
2021/01/20 10:39:26;;;;;;;8.02;1.40;;;;;;;;;;5071076;28;20492;-74
2021/01/20 10:41:54;;;;;;;8.38;1.70;;;;;;;;;;5071141;28;20028;-74
2021/01/20 10:44:21;;;;;;;8.90;1.52;;;;;;;;;;5070545;28;20039;-74
2021/01/20 10:46:48;;;;;;;10.15;1.73;;;;;;;;;;5070749;28;20032;-74
2021/01/20 10:49:15;;;;;;;7.72;2.53;;;;;;;;;;5071212;28;20013;-74
2021/01/20 10:51:42;;;;;;;9.02;1.67;;;;;;;;;;5072736;28;20056;-74
2021/01/20 10:54:10;;;;;;;8.52;1.95;;;;;;;;;;5071409;28;20423;-74
2021/01/20 10:56:37;;;;;;;8.73;1.63;;;;;;;;;;5054135;28;20497;-74
2021/01/20 10:59:05;;;;;;;12.85;2.47;;;;;;;;;;5071428;28;20039;-74
2021/01/20 11:01:32;;;;;;;12.05;2.65;;;;;;;;;;5069037;28;20033;-74
2021/01/20 11:03:59;;;;;;;12.27;2.22;;;;;;;;;;5069748;28;20040;-75
2021/01/20 11:06:26;;;;;;;14.45;3.10;;;;;;;;;;5069953;28;20413;-74
2021/01/20 11:08:53;;;;;;;7.53;1.85;;;;;;;;;;5070074;28;20048;-74
2021/01/20 11:11:20;;;;;;;13.20;1.98;;;;;;;;;;5071394;28;20358;-74
2021/01/20 11:13:47;;;;;;;13.02;3.33;;;;;;;;;;5071094;28;20021;-74
2021/01/20 11:16:14;;;;;;;17.13;3.72;;;;;;;;;;5073925;28;20384;-74
2021/01/20 11:18:41;;;;;;;17.08;4.10;;;;;;;;;;5075388;28;20029;-74
2021/01/20 11:21:14;;;;;;;14.10;3.92;;;;;;;;;;5075562;28;20036;-74
2021/01/20 11:23:43;;;;;;;14.38;3.17;;;;;;;;;;5075327;28;20043;-74
2021/01/20 11:26:10;;;;;;;15.73;3.53;;;;;;;;;;5075257;28;20021;-74
2021/01/20 11:28:37;;;;;;;18.67;3.30;;;;;;;;;;5074789;28;20024;-74
2021/01/20 11:31:05;;;;;;;13.25;3.28;;;;;;;;;;5074488;28;20028;-74
2021/01/20 11:33:32;;;;;;;20.15;4.05;;;;;;;;;;5073163;28;20040;-74
2021/01/20 11:35:59;;;;;;;13.05;3.65;;;;;;;;;;5074615;28;20016;-74
2021/01/20 11:38:26;;;;;;;19.23;3.42;;;;;;;;;;5074707;28;20032;-74
2021/01/20 11:40:53;;;;;;;13.98;3.17;;;;;;;;;;5074408;28;20043;-74
2021/01/20 11:43:20;;;;;;;11.73;3.03;;;;;;;;;;5074566;28;20028;-74
2021/01/20 11:45:47;;;;;;;14.55;2.55;;;;;;;;;;5076837;28;20031;-74
2021/01/20 11:48:15;;;;;;;16.52;3.97;;;;;;;;;;5073301;28;20028;-74
2021/01/20 11:50:42;;;;;;;12.57;2.75;;;;;;;;;;5074278;28;20032;-74
2021/01/20 11:53:09;;;;;;;13.70;2.95;;;;;;;;;;5074825;28;20099;-74
2021/01/20 11:55:36;;;;;;;9.15;2.63;;;;;;;;;;5073967;28;20020;-74
2021/01/20 11:58:03;;;;;;;13.20;3.28;;;;;;;;;;5074401;28;20405;-74
2021/01/20 12:00:30;;;;;;;10.40;2.55;;;;;;;;;;5074607;28;20025;-74
2021/01/20 12:02:57;;;;;;;9.88;2.28;;;;;;;;;;5073254;28;20445;-74
2021/01/20 12:05:25;;;;;;;13.50;2.97;;;;;;;;;;5074245;28;20082;-74
2021/01/20 12:07:52;;;;;;;13.07;3.42;;;;;;;;;;5074587;28;20552;-74
2021/01/20 12:10:19;;;;;;;13.80;3.17;;;;;;;;;;5074855;28;20108;-74
2021/01/20 12:12:46;;;;;;;11.93;3.03;;;;;;;;;;5074545;28;20039;-74
2021/01/20 12:15:13;;;;;;;10.52;3.17;;;;;;;;;;5073896;28;20025;-74
2021/01/20 12:17:40;;;;;;;15.82;3.05;;;;;;;;;;5074321;28;20051;-74
2021/01/20 12:20:08;;;;;;;8.38;2.17;;;;;;;;;;5073646;28;20036;-74
2021/01/20 12:22:35;;;;;;;14.25;3.20;;;;;;;;;;5073733;28;20055;-74
2021/01/20 12:25:03;;;;;;;13.05;3.15;;;;;;;;;;5073932;28;20097;-74
2021/01/20 12:27:33;;;;;;;15.07;3.50;;;;;;;;;;5073625;28;20020;-74
2021/01/20 12:30:01;;;;;;;17.58;3.47;;;;;;;;;;5073901;28;20033;-74
2021/01/20 12:32:28;;;;;;;14.63;3.50;;;;;;;;;;5073679;28;20481;-74
2021/01/20 12:34:55;;;;;;;11.00;2.42;;;;;;;;;;5072853;28;20024;-74
2021/01/20 12:37:22;;;;;;;15.95;2.63;;;;;;;;;;5073038;28;20020;-74
2021/01/20 12:39:49;;;;;;;15.30;2.47;;;;;;;;;;5074994;28;20151;-74
2021/01/20 12:42:16;;;;;;;13.60;2.80;;;;;;;;;;5073338;28;20381;-74
2021/01/20 12:44:44;;;;;;;12.35;2.70;;;;;;;;;;5072822;28;20044;-74
2021/01/20 12:47:11;;;;;;;11.77;2.47;;;;;;;;;;5073196;28;20028;-74
2021/01/20 12:49:38;;;;;;;12.55;3.08;;;;;;;;;;5072796;28;20026;-74
2021/01/20 12:52:05;;;;;;;16.33;2.72;;;;;;;;;;5073071;28;20031;-74
2021/01/20 12:54:32;;;;;;;9.35;2.05;;;;;;;;;;5073639;28;20020;-74
2021/01/20 12:56:59;;;;;;;13.27;2.50;;;;;;;;;;5073812;28;20040;-74
2021/01/20 12:59:26;;;;;;;16.85;2.85;;;;;;;;;;5073015;28;20370;-74
2021/01/20 13:01:53;;;;;;;15.65;2.63;;;;;;;;;;5072939;28;20208;-74
2021/01/20 13:04:20;;;;;;;16.80;2.97;;;;;;;;;;5073485;28;20109;-74
2021/01/20 13:06:48;;;;;;;14.90;3.63;;;;;;;;;;5075993;28;20048;-74
2021/01/20 13:09:16;;;;;;;11.18;2.55;;;;;;;;;;5072782;28;20057;-74
2021/01/20 13:11:44;;;;;;;15.45;2.88;;;;;;;;;;5072919;28;20020;-74
2021/01/20 13:14:11;;;;;;;12.82;2.72;;;;;;;;;;5072650;28;20096;-74
2021/01/20 13:16:39;;;;;;;11.45;2.28;;;;;;;;;;5072767;28;20369;-74
2021/01/20 13:19:06;;;;;;;12.23;2.53;;;;;;;;;;5073110;28;20520;-74
2021/01/20 13:21:34;;;;;;;10.77;2.30;;;;;;;;;;5072989;28;20021;-74
2021/01/20 13:24:01;;;;;;;12.23;2.47;;;;;;;;;;5072930;28;20504;-74
2021/01/20 13:26:28;;;;;;;8.65;2.42;;;;;;;;;;5073127;28;20032;-74
2021/01/20 13:28:55;;;;;;;10.80;2.90;;;;;;;;;;5071664;28;20027;-74
2021/01/20 13:31:22;;;;;;;14.32;2.60;;;;;;;;;;5075657;28;20379;-74
2021/01/20 13:33:49;;;;;;;11.27;3.10;;;;;;;;;;5075551;28;20039;-74
2021/01/20 13:36:16;;;;;;;18.40;2.55;;;;;;;;;;5072423;28;20024;-74
2021/01/20 13:38:44;;;;;;;8.77;1.80;;;;;;;;;;5071881;28;20052;-74
2021/01/20 13:41:11;;;;;;;7.25;2.13;;;;;;;;;;5072587;28;20456;-74
2021/01/20 13:43:38;;;;;;;12.43;2.40;;;;;;;;;;5072605;28;20037;-74
2021/01/20 13:46:05;;;;;;;9.10;2.38;;;;;;;;;;5072878;28;20040;-74
2021/01/20 13:48:32;;;;;;;8.20;2.10;;;;;;;;;;5055445;28;20492;-74
2021/01/20 13:50:59;;;;;;;10.63;2.17;;;;;;;;;;5072838;28;20029;-74
2021/01/20 13:53:26;;;;;;;14.43;2.55;;;;;;;;;;5072498;28;20086;-74
2021/01/20 13:55:55;;;;;;;9.75;3.05;;;;;;;;;;5072280;28;20077;-74
2021/01/20 13:58:22;;;;;;;8.60;2.78;;;;;;;;;;5072287;28;20399;-74
2021/01/20 14:00:49;;;;;;;11.98;2.42;;;;;;;;;;5072000;28;20099;-74
2021/01/20 14:03:16;;;;;;;8.40;1.92;;;;;;;;;;5073086;28;20032;-74
2021/01/20 14:05:46;;;;;;;11.15;2.08;;;;;;;;;;5072022;28;20025;-74
2021/01/20 14:08:13;;;;;;;11.02;2.08;;;;;;;;;;5072303;28;20017;-74
2021/01/20 14:10:40;;;;;;;8.98;2.00;;;;;;;;;;5071952;28;20388;-74
2021/01/20 14:13:07;;;;;;;8.55;2.03;;;;;;;;;;5072335;28;20028;-74
2021/01/20 14:15:34;;;;;;;9.77;2.40;;;;;;;;;;5072168;28;20036;-74
2021/01/20 14:18:01;;;;;;;14.68;2.47;;;;;;;;;;5071923;28;20362;-74
2021/01/20 14:20:30;;;;;;;12.40;3.03;;;;;;;;;;5071791;28;20059;-74
2021/01/20 14:22:57;;;;;;;9.75;1.75;;;;;;;;;;5071585;28;20044;-73
2021/01/20 14:25:24;;;;;;;18.35;2.42;;;;;;;;;;5071629;28;20113;-74
2021/01/20 14:27:51;;;;;;;14.48;3.08;;;;;;;;;;5073544;28;20028;-74
2021/01/20 14:30:19;;;;;;;11.15;2.55;;;;;;;;;;5071506;28;20113;-74
2021/01/20 14:32:46;;;;;;;11.35;2.60;;;;;;;;;;5071024;28;20032;-74
2021/01/20 14:35:14;;;;;;;10.45;1.85;;;;;;;;;;5071883;28;20074;-74
2021/01/20 14:37:41;;;;;;;9.82;2.10;;;;;;;;;;5071449;28;20337;-74
2021/01/20 14:40:08;;;;;;;14.48;2.67;;;;;;;;;;5072020;28;20074;-74
2021/01/20 14:42:36;;;;;;;8.45;1.90;;;;;;;;;;5071664;28;20424;-74
2021/01/20 14:45:03;;;;;;;10.55;2.13;;;;;;;;;;5071595;28;20059;-74
2021/01/20 14:47:30;;;;;;;9.88;2.70;;;;;;;;;;5072162;28;20043;-74